Time;durP1;ratioP1;P1;durP2;ratioP2;P2;SDS_P1;SDS_P2;PMS_P1;PMS_P2;Temp;Humidity;BMP_temperature;BMP_pressure;BME280_temperature;BME280_humidity;BME280_pressure;Samples;Min_cycle;Max_cycle;Signal;HPM_P1;HPM_P2
2021/08/18 00:00:12;;;;;;;;;2.50;1.25;;;;;17.17;64.53;100860.03;5037849;28;45243;-88
2021/08/18 00:02:37;;;;;;;;;6.25;1.50;;;;;17.22;64.58;100865.88;5037184;28;47503;-87
2021/08/18 00:05:04;;;;;;;;;2.00;2.00;;;;;17.22;64.67;100876.63;5039210;28;45270;-88
2021/08/18 00:07:29;;;;;;;;;3.00;3.00;;;;;17.29;64.65;100879.69;5037587;28;45341;-87
2021/08/18 00:09:55;;;;;;;;;3.00;2.25;;;;;17.19;64.51;100865.28;5037611;28;45199;-88
2021/08/18 00:12:20;;;;;;;;;4.75;3.00;;;;;17.20;64.64;100870.53;5039261;28;46663;-88
2021/08/18 00:14:45;;;;;;;;;3.25;2.00;;;;;17.21;64.43;100869.53;5037716;28;45721;-87
2021/08/18 00:17:11;;;;;;;;;6.75;3.75;;;;;17.03;64.87;100844.97;5038889;28;45277;-88
2021/08/18 00:19:36;;;;;;;;;4.00;2.50;;;;;17.15;64.34;100855.75;5037539;28;45262;-88
2021/08/18 00:22:02;;;;;;;;;3.00;2.75;;;;;17.12;64.64;100851.47;5037593;28;48116;-89
2021/08/18 00:24:27;;;;;;;;;2.00;2.00;;;;;17.16;64.61;100852.06;5038916;28;45193;-87
2021/08/18 00:26:53;;;;;;;;;3.50;3.50;;;;;17.17;65.21;100856.47;5038931;28;45260;-87
2021/08/18 00:29:18;;;;;;;;;2.00;2.00;;;;;17.07;65.16;100838.41;5039092;28;45183;-87
2021/08/18 00:31:43;;;;;;;;;2.50;2.00;;;;;17.16;65.34;100852.94;5038699;28;46509;-88
2021/08/18 00:34:09;;;;;;;;;2.75;2.00;;;;;17.21;64.95;100871.38;5038549;28;45373;-87
2021/08/18 00:36:34;;;;;;;;;3.75;2.75;;;;;17.11;65.10;100856.97;5037299;28;45167;-87
2021/08/18 00:38:59;;;;;;;;;3.00;3.00;;;;;17.04;64.95;100843.16;5037210;28;45380;-88
2021/08/18 00:41:26;;;;;;;;;2.25;2.25;;;;;16.97;64.98;100837.38;5037081;28;47282;-88
2021/08/18 00:43:52;;;;;;;;;3.75;2.75;;;;;17.17;65.11;100861.84;5038628;28;45155;-86
2021/08/18 00:46:18;;;;;;;;;5.75;2.75;;;;;17.17;65.09;100859.16;5038425;28;45197;-87
2021/08/18 00:48:44;;;;;;;;;4.00;4.00;;;;;17.14;65.11;100854.03;5037415;28;45420;-88
2021/08/18 00:51:11;;;;;;;;;3.00;3.00;;;;;16.98;65.31;100833.72;5038611;28;46221;-87
2021/08/18 00:53:37;;;;;;;;;2.75;2.50;;;;;17.06;65.48;100849.28;5036667;28;45969;-87
2021/08/18 00:56:02;;;;;;;;;7.00;2.50;;;;;17.07;65.43;100841.09;5036989;28;45205;-88
2021/08/18 00:58:29;;;;;;;;;2.00;2.00;;;;;17.15;65.26;100853.91;5036837;28;45387;-87
2021/08/18 01:00:57;;;;;;;;;4.75;2.00;;;;;17.01;65.40;100835.34;5037703;28;45308;-89
2021/08/18 01:03:22;;;;;;;;;4.00;2.00;;;;;16.94;65.25;100824.19;5037741;28;45580;-87
2021/08/18 01:05:47;;;;;;;;;3.75;2.75;;;;;16.95;65.46;100833.97;5036838;28;45163;-87
2021/08/18 01:08:13;;;;;;;;;3.50;2.00;;;;;16.97;65.87;100845.44;5037069;28;45274;-88
2021/08/18 01:10:38;;;;;;;;;2.50;2.50;;;;;17.02;65.65;100851.31;5036851;28;48347;-88
2021/08/18 01:13:05;;;;;;;;;1.75;1.75;;;;;17.08;65.32;100858.06;5038039;28;45404;-88
2021/08/18 01:15:32;;;;;;;;;3.00;3.00;;;;;17.04;65.67;100851.19;5038198;28;45241;-86
2021/08/18 01:18:00;;;;;;;;;3.00;1.75;;;;;17.03;65.59;100844.97;5038008;28;45195;-86
2021/08/18 01:20:29;;;;;;;;;3.75;2.00;;;;;17.07;65.42;100845.59;5036584;28;47330;-86
2021/08/18 01:22:55;;;;;;;;;2.50;2.50;;;;;17.13;65.72;100855.88;5037825;28;45194;-86
2021/08/18 01:25:21;;;;;;;;;5.00;3.25;;;;;17.05;65.35;100843.03;5036711;28;45255;-86
2021/08/18 01:27:53;;;;;;;;;5.00;2.00;;;;;17.10;65.46;100847.19;5038079;28;45318;-85
2021/08/18 01:30:21;;;;;;;;;2.00;2.00;;;;;17.02;65.40;100834.38;5036196;28;48276;-85
2021/08/18 01:32:50;;;;;;;;;4.25;3.00;;;;;17.11;65.39;100844.38;5036336;28;45577;-86
2021/08/18 01:35:19;;;;;;;;;1.00;1.00;;;;;17.12;65.56;100850.63;5036497;28;45173;-87
2021/08/18 01:37:44;;;;;;;;;4.75;2.75;;;;;16.97;65.72;100828.47;5036335;28;45305;-85
2021/08/18 01:40:10;;;;;;;;;3.00;2.00;;;;;16.93;65.51;100821.63;5037747;28;45296;-86
2021/08/18 01:42:38;;;;;;;;;2.00;2.00;;;;;17.06;65.66;100850.13;5036135;28;45151;-86
2021/08/18 01:45:04;;;;;;;;;4.00;1.50;;;;;17.06;65.60;100849.28;5037882;28;45359;-86
2021/08/18 01:47:29;;;;;;;;;3.00;2.00;;;;;16.95;65.53;100823.22;5036457;28;45146;-86
2021/08/18 01:49:55;;;;;;;;;2.00;2.00;;;;;17.01;65.56;100829.97;5037728;28;46200;-86
2021/08/18 01:52:20;;;;;;;;;2.75;2.00;;;;;17.00;65.53;100830.94;5035664;28;45178;-86
2021/08/18 01:54:45;;;;;;;;;3.50;2.00;;;;;16.88;66.43;100809.41;5037816;28;45149;-86
2021/08/18 01:57:11;;;;;;;;;3.00;2.00;;;;;16.93;65.74;100827.88;5036260;28;45341;-87
2021/08/18 01:59:37;;;;;;;;;2.00;2.00;;;;;16.94;65.69;100828.72;5035807;28;48127;-86
2021/08/18 02:02:03;;;;;;;;;1.50;1.50;;;;;16.94;65.74;100829.56;5037361;28;45124;-85
2021/08/18 02:04:28;;;;;;;;;3.25;1.50;;;;;16.99;65.71;100835.44;5035990;28;45211;-87
2021/08/18 02:06:53;;;;;;;;;2.50;2.25;;;;;16.91;65.93;100824.44;5036091;28;45442;-86
2021/08/18 02:09:19;;;;;;;;;3.25;2.25;;;;;16.97;65.76;100840.06;5037317;28;46429;-86
2021/08/18 02:11:44;;;;;;;;;2.25;2.00;;;;;16.95;66.02;100836.66;5037388;28;45230;-87
2021/08/18 02:14:09;;;;;;;;;2.00;1.25;;;;;16.91;66.06;100822.59;5035656;28;45199;-85
2021/08/18 02:16:35;;;;;;;;;3.25;2.00;;;;;16.92;65.62;100818.09;5037216;28;45276;-87
2021/08/18 02:19:00;;;;;;;;;3.00;2.25;;;;;16.99;65.79;100827.41;5037389;28;46166;-86
2021/08/18 02:21:25;;;;;;;;;2.00;2.00;;;;;16.91;66.15;100819.06;5035587;28;45861;-87
2021/08/18 02:23:50;;;;;;;;;1.50;1.50;;;;;16.89;66.24;100804.94;5037375;28;45115;-87
2021/08/18 02:26:16;;;;;;;;;2.00;2.00;;;;;16.94;66.36;100824.19;5035692;28;45270;-86
2021/08/18 02:28:41;;;;;;;;;2.00;2.00;;;;;16.86;65.77;100805.09;5035462;28;47536;-86
2021/08/18 02:31:07;;;;;;;;;2.50;2.50;;;;;16.83;66.31;100794.59;5037167;28;45317;-87
2021/08/18 02:33:34;;;;;;;;;3.50;3.00;;;;;16.87;66.45;100804.13;5035510;28;45259;-87
2021/08/18 02:35:59;;;;;;;;;3.00;3.00;;;;;16.90;66.01;100814.66;5035595;28;45300;-86
2021/08/18 02:38:25;;;;;;;;;4.25;3.50;;;;;16.83;66.10;100811.59;5036693;28;45573;-86
2021/08/18 02:40:50;;;;;;;;;4.75;3.25;;;;;16.84;66.34;100799.84;5036980;28;45145;-86
2021/08/18 02:43:16;;;;;;;;;2.75;2.75;;;;;16.99;66.16;100823.88;5036757;28;45187;-86
2021/08/18 02:45:41;;;;;;;;;3.75;2.75;;;;;16.83;66.13;100795.47;5035729;28;45119;-86
2021/08/18 02:48:06;;;;;;;;;3.25;2.00;;;;;16.84;66.18;100799.00;5036502;28;46453;-86
2021/08/18 02:50:32;;;;;;;;;4.00;3.00;;;;;17.03;66.27;100817.25;5035102;28;45861;-86
2021/08/18 02:52:57;;;;;;;;;2.00;2.00;;;;;16.97;66.22;100805.16;5036829;28;45128;-87
2021/08/18 02:55:23;;;;;;;;;5.00;3.00;;;;;17.03;66.04;100818.13;5035186;28;45427;-87
2021/08/18 02:57:49;;;;;;;;;3.00;1.75;;;;;16.91;65.86;100795.75;5034800;28;47616;-86
2021/08/18 03:00:15;;;;;;;;;2.00;2.00;;;;;17.03;66.29;100818.13;5036242;28;45293;-85
2021/08/18 03:02:41;;;;;;;;;3.25;3.00;;;;;16.96;65.97;100807.97;5035238;28;45198;-86
2021/08/18 03:05:07;;;;;;;;;4.00;3.00;;;;;17.02;66.33;100818.25;5035184;28;45348;-86
2021/08/18 03:07:32;;;;;;;;;4.00;2.75;;;;;16.94;66.13;100804.56;5034739;28;46883;-87
2021/08/18 03:09:57;;;;;;;;;3.25;3.00;;;;;16.98;66.01;100806.03;5036430;28;45325;-87
2021/08/18 03:12:23;;;;;;;;;4.00;3.00;;;;;17.04;66.27;100813.59;5036236;28;45216;-86
2021/08/18 03:14:48;;;;;;;;;3.50;3.00;;;;;16.97;66.54;100807.84;5034814;28;45128;-86
2021/08/18 03:17:14;;;;;;;;;4.00;2.75;;;;;16.95;66.08;100806.28;5036127;28;46365;-86
2021/08/18 03:19:39;;;;;;;;;2.75;2.50;;;;;16.92;66.45;100804.69;5036343;28;45265;-86
2021/08/18 03:22:05;;;;;;;;;3.00;2.50;;;;;17.00;66.45;100820.19;5034738;28;45219;-86
2021/08/18 03:24:30;;;;;;;;;6.25;2.25;;;;;16.86;66.35;100797.91;5035448;28;45278;-86
2021/08/18 03:26:55;;;;;;;;;2.25;2.25;;;;;16.91;66.30;100809.19;5038422;28;47854;-86
2021/08/18 03:29:21;;;;;;;;;4.75;2.75;;;;;16.82;66.73;100788.38;5038242;28;45804;-86
2021/08/18 03:31:46;;;;;;;;;5.00;3.00;;;;;16.82;66.53;100791.06;5039856;28;45213;-87
2021/08/18 03:34:11;;;;;;;;;3.75;2.50;;;;;16.79;66.37;100791.31;5038550;28;45392;-86
2021/08/18 03:36:37;;;;;;;;;2.25;2.00;;;;;16.83;66.71;100799.97;5037939;28;48021;-86
2021/08/18 03:39:02;;;;;;;;;3.75;3.75;;;;;16.93;66.75;100818.94;5038353;28;45203;-86
2021/08/18 03:41:27;;;;;;;;;5.75;3.00;;;;;16.78;66.62;100799.50;5038194;28;45223;-86
2021/08/18 03:43:53;;;;;;;;;3.25;3.00;;;;;16.78;67.32;100797.66;5039997;28;45196;-87
2021/08/18 03:46:18;;;;;;;;;3.50;3.50;;;;;16.76;66.64;100794.25;5038159;28;47059;-85
2021/08/18 03:48:43;;;;;;;;;3.00;2.00;;;;;16.86;66.71;100808.66;5039467;28;45171;-86
2021/08/18 03:51:09;;;;;;;;;5.00;4.00;;;;;16.82;66.76;100804.50;5039497;28;45229;-86
2021/08/18 03:53:34;;;;;;;;;3.00;3.00;;;;;16.80;66.85;100797.53;5037716;28;45170;-88
2021/08/18 03:56:00;;;;;;;;;4.00;4.00;;;;;16.76;67.22;100785.31;5039283;28;45558;-85
2021/08/18 03:58:26;;;;;;;;;3.50;2.75;;;;;16.81;67.55;100800.09;5037741;28;45702;-87
2021/08/18 04:00:51;;;;;;;;;4.00;3.00;;;;;16.76;67.34;100796.94;5037826;28;45164;-87
2021/08/18 04:03:17;;;;;;;;;3.00;3.00;;;;;16.79;67.77;100790.44;5037671;28;45335;-87
2021/08/18 04:05:42;;;;;;;;;2.25;2.25;;;;;16.76;67.85;100788.88;5039286;28;46159;-86
2021/08/18 04:08:08;;;;;;;;;4.25;2.75;;;;;16.77;67.86;100785.19;5037713;28;45518;-87
2021/08/18 04:10:37;;;;;;;;;2.50;2.50;;;;;16.74;67.32;100789.00;5037839;28;45240;-88
2021/08/18 04:13:02;;;;;;;;;4.25;3.00;;;;;16.78;67.90;100805.72;5039220;28;45160;-86
2021/08/18 04:15:34;;;;;;;;;3.00;3.00;;;;;16.77;67.79;100801.31;5037369;28;47138;-86
2021/08/18 04:17:59;;;;;;;;;3.00;3.00;;;;;16.77;67.71;100808.53;5038793;28;45565;-87
2021/08/18 04:20:25;;;;;;;;;3.00;3.00;;;;;16.77;67.53;100805.84;5039360;28;45082;-86
2021/08/18 04:22:51;;;;;;;;;4.25;4.00;;;;;16.76;68.00;100801.44;5037698;28;45192;-87
2021/08/18 04:25:18;;;;;;;;;4.00;3.00;;;;;16.64;68.12;100789.81;5038670;28;45292;-87
2021/08/18 04:27:44;;;;;;;;;3.00;3.00;;;;;16.76;68.01;100814.84;5037444;28;45329;-86
2021/08/18 04:30:12;;;;;;;;;3.25;3.00;;;;;16.69;68.09;100812.66;5037584;28;45238;-87
2021/08/18 04:32:38;;;;;;;;;5.00;2.75;;;;;16.56;68.62;100801.16;5037273;28;45111;-86
2021/08/18 04:35:05;;;;;;;;;3.75;2.50;;;;;16.54;68.65;100795.88;5039007;28;45625;-86
2021/08/18 04:37:30;;;;;;;;;3.25;2.50;;;;;16.34;68.55;100770.56;5037037;28;46241;-86
2021/08/18 04:39:56;;;;;;;;;10.50;5.75;;;;;16.46;68.77;100802.81;5037409;28;45057;-87
2021/08/18 04:42:21;;;;;;;;;4.00;4.00;;;;;16.29;69.06;100785.31;5036903;28;45441;-86
2021/08/18 04:44:46;;;;;;;;;4.75;4.00;;;;;16.28;68.91;100787.16;5037059;28;47067;-87
2021/08/18 04:47:11;;;;;;;;;5.25;3.75;;;;;16.24;69.36;100784.81;5036866;28;45219;-88
2021/08/18 04:49:37;;;;;;;;;4.50;3.00;;;;;16.25;68.87;100787.38;5037286;28;45221;-87
2021/08/18 04:52:03;;;;;;;;;3.25;3.00;;;;;16.27;69.04;100784.59;5037202;28;45109;-89
2021/08/18 04:54:28;;;;;;;;;6.75;3.25;;;;;16.37;69.33;100799.88;5036696;28;47235;-88
2021/08/18 04:56:53;;;;;;;;;3.50;3.25;;;;;16.31;69.13;100788.75;5036889;28;45064;-88
2021/08/18 04:59:19;;;;;;;;;5.00;4.00;;;;;16.36;69.18;100803.53;5036991;28;45129;-88
2021/08/18 05:01:44;;;;;;;;;4.00;4.00;;;;;16.43;69.65;100809.25;5036865;28;45380;-87
2021/08/18 05:04:09;;;;;;;;;4.75;3.00;;;;;16.30;69.39;100795.06;5038163;28;45238;-87
2021/08/18 05:06:35;;;;;;;;;3.00;3.00;;;;;16.25;68.97;100783.81;5038315;28;45234;-87
2021/08/18 05:09:00;;;;;;;;;3.50;3.00;;;;;16.42;69.30;100809.38;5036889;28;45235;-88
2021/08/18 05:11:26;;;;;;;;;3.75;3.00;;;;;16.25;69.25;100784.69;5038112;28;45244;-87
2021/08/18 05:13:51;;;;;;;;;3.00;2.00;;;;;16.32;69.33;100794.00;5038002;28;45353;-87
2021/08/18 05:16:16;;;;;;;;;4.00;3.25;;;;;16.39;69.20;100800.59;5038312;28;45326;-87
2021/08/18 05:18:42;;;;;;;;;5.50;3.75;;;;;16.50;69.21;100817.72;5036749;28;45226;-87
2021/08/18 05:21:07;;;;;;;;;3.25;2.00;;;;;16.48;69.56;100809.78;5038114;28;45198;-87
2021/08/18 05:23:33;;;;;;;;;4.00;3.50;;;;;16.37;69.33;100799.88;5036339;28;47087;-88
2021/08/18 05:25:58;;;;;;;;;4.75;3.50;;;;;16.46;69.59;100811.75;5036727;28;45263;-87
2021/08/18 05:28:24;;;;;;;;;4.00;3.00;;;;;16.41;69.76;100805.84;5037897;28;45176;-87
2021/08/18 05:30:50;;;;;;;;;2.75;2.25;;;;;16.25;69.33;100778.47;5036466;28;45215;-87
2021/08/18 05:33:15;;;;;;;;;3.25;2.00;;;;;16.36;69.52;100795.47;5037742;28;46139;-88
2021/08/18 05:35:41;;;;;;;;;7.25;3.25;;;;;16.36;69.44;100792.78;5037826;28;45166;-88
2021/08/18 05:38:06;;;;;;;;;4.75;3.75;;;;;16.38;69.45;100804.25;5037938;28;45194;-86
2021/08/18 05:40:31;;;;;;;;;3.00;3.00;;;;;16.34;69.56;100794.72;5037813;28;45098;-87
2021/08/18 05:42:57;;;;;;;;;4.75;3.00;;;;;16.44;69.51;100815.50;5037487;28;45462;-87
2021/08/18 05:45:22;;;;;;;;;3.00;2.50;;;;;16.42;69.77;100809.38;5036138;28;45183;-87
2021/08/18 05:47:47;;;;;;;;;3.00;3.00;;;;;16.46;69.48;100822.47;5035685;28;45198;-89
2021/08/18 05:50:13;;;;;;;;;3.50;3.50;;;;;16.46;69.59;100816.22;5037610;28;45230;-88
2021/08/18 05:52:38;;;;;;;;;2.00;2.00;;;;;16.37;69.59;100794.50;5035619;28;46319;-87
2021/08/18 05:55:05;;;;;;;;;3.25;3.25;;;;;16.56;70.09;100825.31;5037415;28;45071;-88
2021/08/18 05:57:31;;;;;;;;;4.50;3.50;;;;;16.58;69.44;100830.56;5035887;28;45293;-87
2021/08/18 05:59:56;;;;;;;;;2.25;2.25;;;;;16.61;69.40;100825.81;5036402;28;45184;-87
2021/08/18 06:02:21;;;;;;;;;3.75;3.75;;;;;16.52;69.51;100813.09;5035847;28;46868;-88
2021/08/18 06:04:47;;;;;;;;;3.00;3.00;;;;;16.51;69.46;100808.69;5037537;28;45260;-88
2021/08/18 06:07:12;;;;;;;;;4.50;4.00;;;;;16.54;69.51;100809.31;5035872;28;45209;-87
2021/08/18 06:09:37;;;;;;;;;3.00;3.00;;;;;16.52;69.28;100815.78;5037246;28;45232;-88
2021/08/18 06:12:07;;;;;;;;;3.25;3.25;;;;;16.60;69.86;100826.75;5035650;28;47415;-88
2021/08/18 06:14:33;;;;;;;;;5.00;4.00;;;;;16.68;69.39;100837.78;5035594;28;46104;-87
2021/08/18 06:16:58;;;;;;;;;3.75;3.00;;;;;16.69;69.55;100822.56;5035648;28;45184;-88
2021/08/18 06:19:23;;;;;;;;;5.00;3.00;;;;;16.80;69.67;100825.25;5037299;28;45203;-87
2021/08/18 06:21:49;;;;;;;;;4.25;4.00;;;;;16.87;69.27;100833.69;5035582;28;47040;-87
2021/08/18 06:24:27;;;;;;;;;6.25;4.75;;;;;16.84;69.57;100821.34;5035305;28;45240;-87
2021/08/18 06:26:54;;;;;;;;;2.75;2.75;;;;;16.94;68.90;100832.25;5035641;28;45273;-88
2021/08/18 06:29:21;;;;;;;;;4.50;3.50;;;;;17.03;68.74;100836.06;5037155;28;45213;-87
2021/08/18 06:31:46;;;;;;;;;3.00;3.00;;;;;16.93;68.72;100814.47;5035211;28;47882;-88
2021/08/18 06:34:12;;;;;;;;;3.75;3.00;;;;;17.04;69.02;100821.66;5037089;28;45155;-87
2021/08/18 06:36:37;;;;;;;;;5.00;4.00;;;;;17.09;68.82;100822.16;5036948;28;45155;-88
2021/08/18 06:39:02;;;;;;;;;4.00;4.00;;;;;17.18;68.95;100825.94;5035562;28;45341;-89
2021/08/18 06:41:28;;;;;;;;;4.75;4.75;;;;;17.28;68.42;100837.66;5034990;28;46925;-87
2021/08/18 06:43:53;;;;;;;;;6.00;3.75;;;;;17.19;68.50;100815.06;5035492;28;45096;-87
2021/08/18 06:46:18;;;;;;;;;4.00;4.00;;;;;17.41;68.61;100845.63;5035156;28;45231;-88
2021/08/18 06:48:43;;;;;;;;;4.25;3.00;;;;;17.35;68.33;100830.00;5035221;28;45458;-89
2021/08/18 06:51:09;;;;;;;;;4.25;3.25;;;;;17.46;68.31;100840.75;5035090;28;47215;-88
2021/08/18 06:53:34;;;;;;;;;4.00;3.00;;;;;17.41;68.60;100824.13;5035037;28;45342;-88
2021/08/18 06:56:00;;;;;;;;;2.50;2.25;;;;;17.56;68.28;100840.88;5035408;28;45224;-87
2021/08/18 06:58:25;;;;;;;;;4.00;4.00;;;;;17.64;68.49;100851.84;5035065;28;45327;-88
2021/08/18 07:00:50;;;;;;;;;3.00;3.00;;;;;17.59;68.07;100821.78;5033934;28;47203;-87
2021/08/18 07:03:16;;;;;;;;;3.00;3.00;;;;;17.62;67.87;100826.91;5034965;28;45415;-87
2021/08/18 07:05:41;;;;;;;;;3.25;3.25;;;;;17.69;68.20;100833.50;5036607;28;45175;-87
2021/08/18 07:08:06;;;;;;;;;5.50;2.50;;;;;17.86;69.08;100837.50;5035031;28;45473;-87
2021/08/18 07:10:32;;;;;;;;;4.25;3.25;;;;;17.83;68.93;100820.75;5034685;28;47707;-87
2021/08/18 07:12:57;;;;;;;;;4.25;3.00;;;;;17.98;68.66;100834.84;5036402;28;45186;-87
2021/08/18 07:15:22;;;;;;;;;4.25;4.00;;;;;18.04;68.39;100837.00;5036664;28;45355;-88
2021/08/18 07:17:48;;;;;;;;;5.25;2.50;;;;;17.89;68.67;100813.03;5034969;28;45197;-88
2021/08/18 07:20:14;;;;;;;;;4.50;4.50;;;;;17.86;68.31;100832.13;5034723;28;46782;-87
2021/08/18 07:22:39;;;;;;;;;4.50;3.00;;;;;17.68;68.32;100812.13;5034856;28;45227;-88
2021/08/18 07:25:05;;;;;;;;;2.50;2.50;;;;;17.74;68.89;100831.31;5036383;28;45581;-87
2021/08/18 07:27:30;;;;;;;;;3.50;3.50;;;;;17.74;68.47;100830.44;5034999;28;45128;-87
2021/08/18 07:29:57;;;;;;;;;3.00;3.00;;;;;17.81;68.71;100842.41;5034858;28;47258;-87
2021/08/18 07:32:22;;;;;;;;;4.25;2.50;;;;;17.67;68.73;100822.03;5035998;28;45534;-87
2021/08/18 07:34:47;;;;;;;;;6.00;4.75;;;;;17.73;68.72;100832.28;5034877;28;45089;-87
2021/08/18 07:37:13;;;;;;;;;4.00;4.00;;;;;17.65;68.30;100812.38;5034595;28;45489;-88
2021/08/18 07:39:38;;;;;;;;;4.75;4.00;;;;;17.76;68.31;100831.19;5034414;28;47824;-88
2021/08/18 07:42:04;;;;;;;;;4.00;4.00;;;;;17.77;67.99;100830.19;5034494;28;45289;-88
2021/08/18 07:44:29;;;;;;;;;3.25;2.00;;;;;17.91;68.44;100846.09;5034732;28;45145;-87
2021/08/18 07:46:54;;;;;;;;;3.00;3.00;;;;;17.83;68.02;100831.50;5035858;28;45228;-87
2021/08/18 07:49:20;;;;;;;;;5.00;3.00;;;;;17.87;68.09;100839.22;5034465;28;47023;-89
2021/08/18 07:51:45;;;;;;;;;3.50;2.50;;;;;17.94;68.11;100842.28;5034202;28;45266;-87
2021/08/18 07:54:10;;;;;;;;;2.50;2.50;;;;;18.02;67.98;100836.28;5034514;28;45308;-87
2021/08/18 07:56:36;;;;;;;;;3.75;2.75;;;;;18.01;67.85;100830.03;5034487;28;45168;-88
2021/08/18 07:59:01;;;;;;;;;3.00;3.00;;;;;18.10;67.65;100842.75;5035966;28;45304;-87
2021/08/18 08:01:27;;;;;;;;;2.25;2.25;;;;;18.08;67.56;100830.38;5035834;28;45363;-88
2021/08/18 08:03:52;;;;;;;;;2.00;2.00;;;;;18.27;67.27;100848.53;5034385;28;45270;-87
2021/08/18 08:06:18;;;;;;;;;4.00;3.00;;;;;18.27;66.82;100832.41;5034313;28;45247;-87
2021/08/18 08:08:43;;;;;;;;;2.25;2.25;;;;;18.35;66.80;100827.22;5035826;28;46517;-87
2021/08/18 08:11:09;;;;;;;;;3.00;3.00;;;;;18.52;66.79;100847.34;5036716;28;45318;-84
2021/08/18 08:13:34;;;;;;;;;3.00;3.00;;;;;18.62;66.49;100842.03;5039147;28;45196;-83
2021/08/18 08:15:59;;;;;;;;;3.50;3.50;;;;;18.66;66.00;100843.50;5039196;28;45251;-84
2021/08/18 08:18:25;;;;;;;;;5.50;2.25;;;;;18.68;65.95;100846.91;5038498;28;45896;-82
2021/08/18 08:20:50;;;;;;;;;8.00;3.00;;;;;18.67;66.07;100842.53;5038984;28;45156;-82
2021/08/18 08:23:16;;;;;;;;;3.75;3.00;;;;;18.72;65.89;100851.03;5039066;28;45116;-83
2021/08/18 08:25:41;;;;;;;;;4.00;4.00;;;;;18.76;65.75;100851.66;5038733;28;45143;-83
2021/08/18 08:28:06;;;;;;;;;4.00;4.00;;;;;18.79;66.03;100848.69;5038813;28;45206;-83
2021/08/18 08:30:33;;;;;;;;;5.25;3.25;;;;;18.87;65.74;100850.75;5038691;28;45148;-83
2021/08/18 08:32:58;;;;;;;;;5.25;3.00;;;;;18.94;65.00;100844.72;5038727;28;45168;-82
2021/08/18 08:35:24;;;;;;;;;2.75;2.75;;;;;19.05;65.08;100851.84;5038877;28;45230;-83
2021/08/18 08:37:49;;;;;;;;;4.00;4.00;;;;;19.11;65.49;100840.56;5038659;28;45187;-83
2021/08/18 08:40:15;;;;;;;;;5.50;3.00;;;;;19.28;65.19;100849.88;5038395;28;45300;-83
2021/08/18 08:42:41;;;;;;;;;3.50;3.25;;;;;19.44;64.42;100851.22;5038527;28;45253;-84
2021/08/18 08:45:08;;;;;;;;;4.00;3.75;;;;;19.67;63.93;100857.28;5038756;28;45306;-83
2021/08/18 08:47:35;;;;;;;;;2.25;2.00;;;;;19.87;63.26;100847.41;5038086;28;46335;-82
2021/08/18 08:50:05;;;;;;;;;4.50;2.25;;;;;20.04;62.94;100854.00;5038270;28;45218;-83
2021/08/18 08:52:32;;;;;;;;;2.50;2.00;;;;;20.18;62.77;100852.75;5038283;28;45273;-82
2021/08/18 08:54:58;;;;;;;;;2.00;2.00;;;;;20.30;62.37;100858.84;5038709;28;45343;-82
2021/08/18 08:57:23;;;;;;;;;4.00;4.00;;;;;20.38;62.39;100856.31;5037998;28;45894;-82
2021/08/18 08:59:48;;;;;;;;;3.00;2.00;;;;;20.43;61.43;100855.88;5038228;28;45189;-78
2021/08/18 09:02:15;;;;;;;;;3.50;3.00;;;;;20.43;61.56;100862.13;5038370;28;45313;-77
2021/08/18 09:04:46;;;;;;;;;3.75;3.75;;;;;20.49;63.02;100866.97;5037667;28;45429;-78
2021/08/18 09:07:15;;;;;;;;;4.00;3.00;;;;;20.58;62.66;100861.69;5037721;28;45269;-77
2021/08/18 09:09:53;;;;;;;;;3.00;3.00;;;;;20.64;63.24;100856.56;5037603;28;45098;-78
2021/08/18 09:12:21;;;;;;;;;2.00;2.00;;;;;20.68;62.51;100847.22;5037697;28;45200;-77
2021/08/18 09:14:46;;;;;;;;;4.25;3.25;;;;;20.72;62.67;100852.34;5037660;28;45306;-77
2021/08/18 09:17:36;;;;;;;;;2.00;2.00;;;;;20.78;61.28;100854.44;5037558;28;46048;-78
2021/08/18 09:20:08;;;;;;;;;3.00;1.00;;;;;20.78;61.75;100859.84;5037377;28;45566;-78
2021/08/18 09:22:38;;;;;;;;;2.75;1.75;;;;;20.79;60.87;100856.16;5036361;28;45181;-77
2021/08/18 09:25:41;;;;;;;;;1.25;1.25;;;;;20.77;61.46;100855.47;5037942;28;45240;-82
2021/08/18 09:28:06;;;;;;;;;4.00;2.50;;;;;20.69;61.08;100856.16;5038054;28;45944;-80
2021/08/18 09:30:38;;;;;;;;;3.00;1.33;;;;;20.64;61.47;100858.44;5038048;28;45231;-79
2021/08/18 09:33:16;;;;;;;;;3.25;2.25;;;;;20.63;60.95;100865.66;5038139;28;45178;-79
2021/08/18 09:35:43;;;;;;;;;1.25;1.25;;;;;20.59;60.97;100858.84;5038333;28;45094;-81
2021/08/18 09:38:14;;;;;;;;;2.25;2.25;;;;;20.58;61.04;100865.25;5037750;28;46145;-81
2021/08/18 09:40:46;;;;;;;;;3.50;2.25;;;;;20.55;61.33;100859.28;5038128;28;45245;-81
2021/08/18 09:43:15;;;;;;;;;2.00;2.00;;;;;20.47;61.20;100855.44;5038039;28;45303;-83
2021/08/18 09:45:45;;;;;;;;;4.00;3.00;;;;;20.39;61.50;100855.28;5038188;28;45229;-82
2021/08/18 09:48:18;;;;;;;;;3.25;2.25;;;;;20.36;61.45;100850.19;5037651;28;46348;-82
2021/08/18 09:50:49;;;;;;;;;5.00;3.00;;;;;20.31;61.67;100830.88;5037882;28;45472;-82
2021/08/18 09:53:15;;;;;;;;;5.00;3.00;;;;;20.50;61.30;100841.66;5037755;28;45263;-82
2021/08/18 09:55:53;;;;;;;;;5.00;4.00;;;;;20.64;61.47;100842.22;5038234;28;45212;-82
2021/08/18 09:58:30;;;;;;;;;4.25;4.25;;;;;20.81;60.81;100844.22;5037362;28;46642;-82
2021/08/18 10:00:58;;;;;;;;;3.00;3.00;;;;;21.04;60.73;100827.69;5037827;28;45143;-82
2021/08/18 10:03:25;;;;;;;;;2.50;2.50;;;;;21.18;59.67;100820.94;5037395;28;45271;-82
2021/08/18 10:05:51;;;;;;;;;5.25;4.00;;;;;21.26;59.45;100817.50;5037765;28;45206;-82
2021/08/18 10:08:19;;;;;;;;;5.50;4.75;;;;;21.43;59.59;100827.53;5037563;28;45437;-82
2021/08/18 10:10:46;;;;;;;;;7.00;5.25;;;;;21.51;58.48;100822.25;5037511;28;45171;-82
2021/08/18 10:13:12;;;;;;;;;3.00;3.00;;;;;21.58;58.33;100825.22;5037611;28;45271;-83
2021/08/18 10:15:38;;;;;;;;;7.00;5.50;;;;;21.65;58.13;100826.31;5037493;28;45361;-83
2021/08/18 10:18:05;;;;;;;;;6.50;6.00;;;;;21.70;58.31;100829.41;5037288;28;45770;-83
2021/08/18 10:20:31;;;;;;;;;9.00;7.75;;;;;21.77;58.28;100828.81;5037648;28;45110;-85
2021/08/18 10:23:10;;;;;;;;;6.75;6.00;;;;;21.83;57.27;100820.97;5037552;28;45138;-85
2021/08/18 10:25:37;;;;;;;;;8.00;8.00;;;;;21.87;57.19;100827.75;5037538;28;45368;-84
2021/08/18 10:28:05;;;;;;;;;7.75;6.75;;;;;21.93;57.46;100830.84;5036235;28;46953;-85
2021/08/18 10:30:31;;;;;;;;;7.25;7.25;;;;;21.90;57.37;100813.06;5037639;28;45204;-84
2021/08/18 10:32:57;;;;;;;;;6.00;6.00;;;;;21.91;57.23;100813.94;5037453;28;45258;-87
2021/08/18 10:35:34;;;;;;;;;9.00;8.00;;;;;21.99;57.02;100819.41;5038148;28;45249;-86
2021/08/18 10:38:24;;;;;;;;;9.25;8.00;;;;;21.98;56.44;100818.56;5037656;28;46654;-87
2021/08/18 10:40:53;;;;;;;;;9.75;6.25;;;;;21.93;56.82;100812.75;5037670;28;45485;-86
2021/08/18 10:43:55;;;;;;;;;9.75;8.75;;;;;21.92;57.00;100815.59;5037571;28;45212;-88
2021/08/18 10:46:21;;;;;;;;;8.00;8.00;;;;;21.86;56.43;100809.81;5037016;28;45225;-86
2021/08/18 10:48:55;;;;;;;;;6.75;6.75;;;;;21.81;56.64;100817.53;5037282;28;45225;-86
2021/08/18 10:51:39;;;;;;;;;9.00;9.00;;;;;21.73;57.31;100817.44;5037222;28;45703;-85
2021/08/18 10:54:29;;;;;;;;;8.25;8.25;;;;;21.66;56.88;100817.22;5037012;28;45276;-86
2021/08/18 10:56:59;;;;;;;;;10.00;8.00;;;;;21.56;56.95;100813.69;5037120;28;45217;-85
2021/08/18 10:59:36;;;;;;;;;9.75;8.00;;;;;21.54;57.53;100818.41;5035701;28;47528;-86
2021/08/18 11:02:08;;;;;;;;;6.50;6.50;;;;;21.52;57.68;100813.16;5036587;28;45567;-84
2021/08/18 11:04:47;;;;;;;;;8.00;8.00;;;;;21.47;57.19;100801.88;5035687;28;45267;-83
2021/08/18 12:55:51;;;;;;;;;6.00;5.00;;;;;24.59;50.27;100774.97;6046692;23;46278;-94
2021/08/18 12:58:24;;;;;;;;;5.00;5.00;;;;;24.60;49.30;100765.00;5003365;23;47156;-87
2021/08/18 13:00:50;;;;;;;;;7.00;7.00;;;;;24.52;49.40;100775.84;4998237;28;46089;-86
2021/08/18 13:03:15;;;;;;;;;10.00;9.00;;;;;24.40;49.95;100778.03;4999379;28;45244;-84
2021/08/18 13:05:41;;;;;;;;;8.75;8.50;;;;;24.31;49.96;100769.03;4996731;28;45289;-85
2021/08/18 13:08:06;;;;;;;;;6.50;6.50;;;;;24.23;50.14;100772.59;4997879;28;45284;-85
2021/08/18 13:10:32;;;;;;;;;5.75;5.75;;;;;24.16;50.76;100768.88;4996892;28;47197;-86